createdAt,value
2019-03-12T00:02:00.520Z,4.43
2019-03-12T00:04:26.688Z,4.60
2019-03-12T00:06:52.829Z,4.77
2019-03-12T00:09:19.104Z,4.07
2019-03-12T00:11:45.632Z,4.13
2019-03-12T00:14:11.786Z,4.00
2019-03-12T00:16:37.925Z,4.20
2019-03-12T00:19:04.106Z,4.10
2019-03-12T00:21:30.249Z,3.87
2019-03-12T00:23:56.621Z,4.23
2019-03-12T00:26:23.119Z,3.67
2019-03-12T00:28:49.290Z,4.20
2019-03-12T00:31:15.437Z,4.03
2019-03-12T00:33:41.627Z,4.23
2019-03-12T00:36:07.780Z,4.20
2019-03-12T00:38:33.970Z,3.80
2019-03-12T00:41:00.126Z,3.83
2019-03-12T00:43:26.290Z,4.27
2019-03-12T00:45:52.426Z,4.50
2019-03-12T00:48:18.607Z,4.00
2019-03-12T00:50:44.745Z,4.37
2019-03-12T00:53:10.885Z,4.40
2019-03-12T00:55:37.050Z,4.20
2019-03-12T00:58:03.497Z,4.40
2019-03-12T01:00:29.669Z,4.00
2019-03-12T01:02:55.897Z,4.27
2019-03-12T01:05:22.082Z,4.30
2019-03-12T01:07:48.278Z,4.50
2019-03-12T01:10:14.569Z,3.77
2019-03-12T01:12:40.812Z,4.30
2019-03-12T01:15:12.526Z,4.03
2019-03-12T01:17:38.663Z,3.70
2019-03-12T01:20:09.250Z,4.00
2019-03-12T01:22:35.422Z,3.63
2019-03-12T01:25:01.849Z,3.37
2019-03-12T01:27:27.993Z,3.30
2019-03-12T01:29:54.166Z,3.63
2019-03-12T01:32:20.668Z,3.47
2019-03-12T01:34:46.839Z,3.10
2019-03-12T01:37:12.979Z,3.43
2019-03-12T01:39:39.159Z,3.63
2019-03-12T01:42:05.322Z,3.70
2019-03-12T01:44:31.523Z,3.40
2019-03-12T01:46:57.666Z,3.87
2019-03-12T01:49:23.843Z,3.60
2019-03-12T01:51:50.242Z,3.33
2019-03-12T01:54:16.445Z,3.40
2019-03-12T01:56:42.589Z,3.53
2019-03-12T01:59:08.754Z,3.97
2019-03-12T02:01:34.986Z,3.57
2019-03-12T02:04:01.190Z,3.50
2019-03-12T02:06:27.330Z,2.97
2019-03-12T02:08:53.608Z,3.80
2019-03-12T02:11:19.778Z,3.00
2019-03-12T02:13:45.915Z,3.10
2019-03-12T02:16:12.081Z,3.07
2019-03-12T02:18:38.261Z,2.93
2019-03-12T02:21:04.432Z,3.67
2019-03-12T02:23:30.569Z,3.17
2019-03-12T02:25:56.749Z,3.60
2019-03-12T02:28:22.893Z,3.20
2019-03-12T02:30:49.196Z,3.10
2019-03-12T02:33:15.353Z,2.73
2019-03-12T02:35:41.545Z,3.57
2019-03-12T02:38:07.696Z,3.50
2019-03-12T02:40:34.229Z,3.13
2019-03-12T02:43:00.359Z,3.40
2019-03-12T02:45:26.548Z,3.40
2019-03-12T02:47:52.673Z,3.80
2019-03-12T02:50:18.864Z,3.70
2019-03-12T02:52:45.116Z,3.57
2019-03-12T02:55:12.978Z,3.80
2019-03-12T02:57:39.104Z,3.83
2019-03-12T03:00:20.415Z,3.97
2019-03-12T03:02:46.555Z,3.77
2019-03-12T03:05:12.736Z,3.63
2019-03-12T03:07:48.908Z,4.20
2019-03-12T03:10:15.183Z,3.80
2019-03-12T03:12:41.375Z,3.80
2019-03-12T03:15:34.858Z,4.00
2019-03-12T03:18:00.984Z,3.90
2019-03-12T03:20:27.247Z,4.43
2019-03-12T03:22:53.390Z,4.90
2019-03-12T03:25:19.580Z,4.50
2019-03-12T03:27:45.769Z,4.70
2019-03-12T03:30:16.342Z,4.33
2019-03-12T03:32:42.498Z,5.00
2019-03-12T03:35:09.212Z,4.40
2019-03-12T03:37:35.377Z,5.50
2019-03-12T03:40:02.654Z,4.90
2019-03-12T03:42:28.790Z,4.80
2019-03-12T03:44:55.010Z,5.00
2019-03-12T03:47:21.214Z,5.17
2019-03-12T03:49:47.313Z,5.30
2019-03-12T03:52:13.501Z,4.93
2019-03-12T03:54:39.731Z,5.07
2019-03-12T03:57:05.908Z,4.23
2019-03-12T03:59:32.059Z,4.47
2019-03-12T04:01:58.335Z,4.70
2019-03-12T04:04:24.854Z,4.50
2019-03-12T04:06:51.048Z,4.53
2019-03-12T04:09:17.172Z,4.97
2019-03-12T04:11:43.344Z,5.20
2019-03-12T04:14:09.483Z,4.43
2019-03-12T04:16:35.652Z,4.77
2019-03-12T04:19:01.789Z,5.30
2019-03-12T04:21:27.989Z,5.27
2019-03-12T04:23:54.277Z,4.90
2019-03-12T04:26:20.711Z,5.23
2019-03-12T04:28:46.848Z,4.83
2019-03-12T04:31:13.281Z,4.70
2019-03-12T04:33:59.826Z,5.00
2019-03-12T04:36:26.137Z,4.90
2019-03-12T04:38:52.292Z,4.67
2019-03-12T04:41:18.492Z,4.37
2019-03-12T04:43:44.630Z,5.03
2019-03-12T04:46:10.844Z,4.97
2019-03-12T04:48:37.008Z,4.27
2019-03-12T04:51:03.191Z,5.37
2019-03-12T04:53:29.341Z,5.30
2019-03-12T04:55:55.840Z,4.87
2019-03-12T04:58:22.003Z,5.50
2019-03-12T05:00:48.501Z,4.87
2019-03-12T05:03:14.661Z,4.90
2019-03-12T05:05:40.831Z,5.30
2019-03-12T05:08:07.212Z,5.33
2019-03-12T05:10:33.377Z,5.20
2019-03-12T05:12:59.553Z,5.57
2019-03-12T05:15:25.694Z,5.10
2019-03-12T05:17:52.816Z,5.67
2019-03-12T05:20:18.954Z,5.20
2019-03-12T05:22:45.117Z,4.97
2019-03-12T05:25:14.379Z,5.73
2019-03-12T05:27:40.756Z,5.60
2019-03-12T05:30:17.411Z,6.07
2019-03-12T05:32:43.593Z,5.37
2019-03-12T05:35:09.949Z,6.13
2019-03-12T05:37:36.138Z,6.17
2019-03-12T05:40:06.688Z,5.97
2019-03-12T05:42:32.883Z,6.60
2019-03-12T05:44:59.040Z,6.57
2019-03-12T05:47:25.204Z,6.43
2019-03-12T05:49:51.346Z,6.40
2019-03-12T05:52:17.527Z,6.23
2019-03-12T05:54:43.699Z,6.93
2019-03-12T05:57:09.876Z,6.90
2019-03-12T05:59:36.300Z,5.80
2019-03-12T06:02:02.767Z,6.40
2019-03-12T06:04:28.909Z,5.87
2019-03-12T06:06:55.076Z,6.20
2019-03-12T06:09:30.258Z,6.10
2019-03-12T06:11:49.336Z,6.10
2019-03-12T06:14:15.758Z,6.27
2019-03-12T06:16:41.951Z,6.33
2019-03-12T06:19:08.179Z,6.33
2019-03-12T06:21:34.341Z,5.80
2019-03-12T06:24:00.485Z,5.93
2019-03-12T06:26:26.680Z,5.47
2019-03-12T06:28:52.825Z,5.77
2019-03-12T06:31:37.625Z,5.40
2019-03-12T06:34:05.681Z,5.77
2019-03-12T06:36:36.668Z,5.77
2019-03-12T06:39:10.357Z,5.40
2019-03-12T06:41:53.719Z,5.93
2019-03-12T06:44:30.550Z,4.90
2019-03-12T06:46:58.624Z,5.57
2019-03-12T06:49:27.027Z,6.23
2019-03-12T06:52:04.108Z,5.77
2019-03-12T06:54:35.062Z,5.63
2019-03-12T06:57:09.048Z,4.97
2019-03-12T06:59:43.276Z,5.00
2019-03-12T07:02:23.767Z,4.67
2019-03-12T07:04:57.948Z,4.37
2019-03-12T07:07:45.803Z,3.87
2019-03-12T07:10:23.864Z,4.07
2019-03-12T07:12:51.923Z,3.53
2019-03-12T07:15:36.856Z,3.40
2019-03-12T07:18:07.874Z,3.30
2019-03-12T07:20:41.654Z,3.70
2019-03-12T07:23:09.720Z,3.10
2019-03-12T07:25:37.789Z,2.70
2019-03-12T07:28:08.762Z,3.07
2019-03-12T07:30:51.980Z,3.00
2019-03-12T07:33:22.715Z,2.90
2019-03-12T07:36:00.276Z,2.80
2019-03-12T07:38:43.602Z,2.50
2019-03-12T07:41:32.263Z,2.43
2019-03-12T07:44:07.462Z,2.43
2019-03-12T07:46:35.544Z,2.50
2019-03-12T07:49:16.036Z,2.70
2019-03-12T07:51:47.045Z,2.50
2019-03-12T07:54:15.099Z,2.20
2019-03-12T07:57:00.035Z,2.30
2019-03-12T07:59:31.072Z,2.33
2019-03-12T08:02:15.668Z,2.30
2019-03-12T08:04:59.358Z,2.00
2019-03-12T08:10:02.208Z,2.23
2019-03-12T08:12:47.142Z,2.50
2019-03-12T08:15:27.412Z,1.60
2019-03-12T08:18:11.994Z,2.00
2019-03-12T08:20:56.886Z,1.70
2019-03-12T08:23:24.933Z,1.57
2019-03-12T08:25:55.954Z,1.73
2019-03-12T08:28:24.089Z,1.67
2019-03-12T08:30:52.267Z,1.77
2019-03-12T08:33:20.338Z,1.60
2019-03-12T08:35:51.041Z,1.60
2019-03-12T08:38:25.069Z,1.60
2019-03-12T08:40:55.955Z,1.83
2019-03-12T08:43:26.899Z,1.47
2019-03-12T08:45:54.961Z,1.53
2019-03-12T08:48:23.032Z,1.60
2019-03-12T08:50:53.797Z,1.60
2019-03-12T08:53:34.124Z,1.60
2019-03-12T08:56:04.961Z,1.53
2019-03-12T08:58:49.942Z,1.53
2019-03-12T09:01:27.214Z,1.60
2019-03-12T09:03:57.991Z,1.50
2019-03-12T09:06:32.296Z,1.70
2019-03-12T09:09:00.367Z,1.33
2019-03-12T09:11:45.282Z,1.50
2019-03-12T09:14:22.522Z,1.33
2019-03-12T09:16:50.689Z,1.50
2019-03-12T09:19:18.735Z,1.37
2019-03-12T09:21:59.263Z,1.30
2019-03-12T09:24:27.388Z,1.20
2019-03-12T09:26:58.133Z,1.40
2019-03-12T09:29:32.114Z,1.20
2019-03-12T09:32:16.715Z,1.30
2019-03-12T09:34:54.040Z,1.20
2019-03-12T09:37:26.839Z,1.33
2019-03-12T09:40:00.643Z,1.00
2019-03-12T09:42:45.481Z,1.17
2019-03-12T09:45:13.523Z,1.10
2019-03-12T09:47:41.667Z,1.20
2019-03-12T09:50:13.202Z,1.20
2019-03-12T09:52:43.199Z,1.13
2019-03-12T09:55:13.912Z,1.10
2019-03-12T09:57:45.140Z,1.10
2019-03-12T10:00:33.666Z,1.03
2019-03-12T10:03:07.682Z,1.10
2019-03-12T10:05:38.370Z,1.20
2019-03-12T10:08:18.638Z,0.93
2019-03-12T10:10:58.848Z,1.00
2019-03-12T10:13:26.930Z,0.90
2019-03-12T10:16:10.542Z,0.90
2019-03-12T10:18:44.285Z,1.10
2019-03-12T10:21:27.242Z,1.10
2019-03-12T10:24:10.323Z,1.00
2019-03-12T10:26:55.055Z,0.67
2019-03-12T10:29:32.240Z,1.00
2019-03-12T10:32:18.242Z,0.70
2019-03-12T10:34:55.339Z,0.73
2019-03-12T10:37:29.100Z,0.70
2019-03-12T10:40:16.932Z,0.70
2019-03-12T10:42:52.095Z,0.83
2019-03-12T10:45:20.553Z,0.70
2019-03-12T10:47:48.599Z,0.80
2019-03-12T10:50:15.261Z,0.80
2019-03-12T10:52:41.383Z,0.70
2019-03-12T10:55:13.198Z,0.80
2019-03-12T10:57:35.913Z,0.70
2019-03-12T11:00:10.126Z,0.70
2019-03-12T11:02:36.254Z,0.50
2019-03-12T11:05:04.742Z,0.70
2019-03-12T11:07:30.881Z,0.63
2019-03-12T11:09:57.039Z,0.50
2019-03-12T11:12:23.225Z,0.70
2019-03-12T11:14:49.486Z,0.60
2019-03-12T11:17:15.632Z,0.83
2019-03-12T11:19:41.825Z,0.60
2019-03-12T11:22:08.047Z,0.77
2019-03-12T11:24:34.222Z,0.67
2019-03-12T11:27:00.363Z,0.70
2019-03-12T11:29:26.784Z,0.80
2019-03-12T11:31:52.916Z,0.70
2019-03-12T11:34:19.352Z,0.90
2019-03-12T11:36:45.511Z,0.67
2019-03-12T11:39:11.802Z,0.70
2019-03-12T11:41:37.949Z,0.70
2019-03-12T11:44:04.167Z,0.70
2019-03-12T11:46:40.829Z,0.70
2019-03-12T11:48:58.492Z,0.60
2019-03-12T11:51:24.880Z,1.10
2019-03-12T11:53:51.045Z,0.70
2019-03-12T11:56:17.225Z,0.77
2019-03-12T11:58:43.378Z,0.80
2019-03-12T12:01:09.609Z,0.50
2019-03-12T12:03:35.806Z,0.80
2019-03-12T12:06:01.976Z,0.70
2019-03-12T12:08:28.118Z,1.00
2019-03-12T12:10:54.396Z,0.70
2019-03-12T12:13:20.847Z,0.70
2019-03-12T12:15:47.014Z,0.63
2019-03-12T12:18:13.455Z,0.80
2019-03-12T12:20:39.607Z,0.83
2019-03-12T12:23:05.953Z,0.93
2019-03-12T12:25:32.337Z,0.73
2019-03-12T12:27:58.468Z,0.80
2019-03-12T12:30:24.656Z,0.90
2019-03-12T12:32:51.242Z,0.70
2019-03-12T12:35:17.515Z,0.83
2019-03-12T12:37:43.655Z,0.90
2019-03-12T12:40:19.419Z,1.00
2019-03-12T12:42:45.579Z,0.73
2019-03-12T12:45:27.634Z,0.90
2019-03-12T12:47:53.788Z,1.10
2019-03-12T12:50:20.057Z,0.80
2019-03-12T12:52:46.194Z,0.80
2019-03-12T12:55:13.185Z,0.93
2019-03-12T12:57:39.785Z,0.80
2019-03-12T13:00:21.377Z,0.80
2019-03-12T13:02:47.529Z,0.90
2019-03-12T13:05:13.857Z,0.80
2019-03-12T13:07:40.491Z,0.73
2019-03-12T13:10:28.206Z,0.77
2019-03-12T13:12:54.504Z,0.70
2019-03-12T13:15:20.662Z,0.70
2019-03-12T13:17:46.848Z,0.90
2019-03-12T13:20:13.528Z,1.00
2019-03-12T13:22:39.720Z,0.90
2019-03-12T13:25:12.190Z,0.90
2019-03-12T13:27:42.540Z,0.93
2019-03-12T13:30:13.806Z,1.03
2019-03-12T13:32:39.975Z,0.67
2019-03-12T13:35:09.317Z,0.90
2019-03-12T13:37:35.487Z,0.83
2019-03-12T13:40:05.530Z,0.80
2019-03-12T13:42:31.733Z,0.90
2019-03-12T13:44:57.874Z,1.00
2019-03-12T13:47:28.618Z,0.83
2019-03-12T13:49:52.379Z,0.80
2019-03-12T13:52:18.628Z,0.80
2019-03-12T13:54:44.763Z,1.00
2019-03-12T13:57:10.927Z,0.80
2019-03-12T13:59:37.063Z,0.70
2019-03-12T14:02:03.236Z,0.73
2019-03-12T14:04:29.392Z,0.80
2019-03-12T14:06:55.589Z,0.70
2019-03-12T14:09:21.982Z,0.70
2019-03-12T14:11:48.159Z,0.60
2019-03-12T14:14:14.347Z,0.73
2019-03-12T14:16:40.564Z,0.93
2019-03-12T14:19:06.807Z,0.80
2019-03-12T14:21:37.681Z,0.60
2019-03-12T14:24:03.810Z,0.90
2019-03-12T14:26:29.959Z,0.80
2019-03-12T14:28:56.103Z,0.70
2019-03-12T14:31:22.323Z,0.70
2019-03-12T14:33:48.465Z,0.87
2019-03-12T14:36:14.596Z,0.77
2019-03-12T14:38:40.907Z,0.80
2019-03-12T14:41:07.046Z,1.00
2019-03-12T14:43:33.224Z,0.83
2019-03-12T14:45:59.403Z,0.90
2019-03-12T14:48:50.704Z,0.87
2019-03-12T14:51:36.599Z,0.70
2019-03-12T14:54:11.975Z,0.47
2019-03-12T14:56:38.345Z,0.60
2019-03-12T14:59:04.738Z,0.67
2019-03-12T15:01:30.882Z,0.60
2019-03-12T15:03:57.133Z,0.70
2019-03-12T15:06:23.287Z,0.80
2019-03-12T15:08:49.459Z,0.60
2019-03-12T15:11:15.732Z,0.60
2019-03-12T15:13:41.888Z,0.70
2019-03-12T15:16:08.021Z,0.80
2019-03-12T15:18:34.204Z,0.77
2019-03-12T15:21:00.354Z,0.70
2019-03-12T15:23:26.546Z,0.53
2019-03-12T15:25:53.010Z,0.60
2019-03-12T15:28:20.408Z,0.73
2019-03-12T15:30:46.573Z,0.60
2019-03-12T15:33:12.754Z,0.70
2019-03-12T15:35:39.413Z,0.50
2019-03-12T15:38:05.595Z,0.83
2019-03-12T15:40:31.825Z,0.73
2019-03-12T15:42:57.980Z,0.57
2019-03-12T15:45:24.256Z,0.50
2019-03-12T15:47:50.466Z,0.80
2019-03-12T15:50:18.958Z,0.93
2019-03-12T15:52:44.817Z,0.80
2019-03-12T15:55:11.899Z,0.67
2019-03-12T15:57:38.036Z,0.90
2019-03-12T16:00:11.291Z,0.70
2019-03-12T16:02:37.398Z,0.77
2019-03-12T16:05:06.288Z,0.60
2019-03-12T16:07:32.475Z,0.80
2019-03-12T16:09:59.281Z,0.57
2019-03-12T16:12:25.439Z,0.60
2019-03-12T16:14:51.621Z,0.87
2019-03-12T16:17:17.754Z,0.80
2019-03-12T16:19:43.949Z,0.90
2019-03-12T16:22:10.108Z,0.90
2019-03-12T16:24:36.265Z,0.80
2019-03-12T16:27:03.421Z,0.90
2019-03-12T16:29:29.789Z,0.80
2019-03-12T16:31:55.935Z,0.80
2019-03-12T16:34:22.069Z,0.90
2019-03-12T16:36:48.332Z,0.80
2019-03-12T16:39:14.498Z,0.70
2019-03-12T16:41:40.675Z,1.13
2019-03-12T16:44:06.816Z,1.07
2019-03-12T16:46:32.986Z,0.80
2019-03-12T16:48:59.112Z,0.90
2019-03-12T16:51:25.291Z,0.73
2019-03-12T16:53:51.796Z,0.70
2019-03-12T16:56:17.954Z,0.80
2019-03-12T16:58:44.139Z,0.90
2019-03-12T17:01:10.536Z,0.83
2019-03-12T17:03:36.697Z,0.80
2019-03-12T17:06:03.165Z,0.90
2019-03-12T17:08:29.303Z,1.10
2019-03-12T17:11:02.207Z,1.27
2019-03-12T17:13:23.511Z,1.10
2019-03-12T17:15:54.443Z,1.37
2019-03-12T17:18:17.842Z,0.90
2019-03-12T17:20:43.968Z,1.00
2019-03-12T17:23:10.126Z,1.10
2019-03-12T17:25:36.276Z,0.97
2019-03-12T17:28:02.446Z,1.10
2019-03-12T17:30:29.080Z,1.30
2019-03-12T17:32:55.246Z,1.17
2019-03-12T17:35:31.339Z,1.10
2019-03-12T17:37:57.801Z,1.00
2019-03-12T17:40:24.041Z,1.07
2019-03-12T17:42:50.277Z,1.50
2019-03-12T17:45:16.403Z,1.30
2019-03-12T17:47:42.602Z,0.90
2019-03-12T17:50:11.326Z,1.10
2019-03-12T17:52:37.488Z,1.10
2019-03-12T17:55:08.167Z,1.30
2019-03-12T17:57:34.343Z,1.20
2019-03-12T18:00:00.485Z,1.10
2019-03-12T18:02:26.645Z,1.20
2019-03-12T18:04:52.774Z,1.07
2019-03-12T18:07:19.230Z,1.00
2019-03-12T18:09:45.456Z,1.10
2019-03-12T18:12:11.860Z,1.30
2019-03-12T18:14:38.023Z,1.17
2019-03-12T18:17:04.192Z,1.40
2019-03-12T18:19:30.319Z,1.30
2019-03-12T18:21:57.006Z,1.23
2019-03-12T18:24:23.135Z,1.57
2019-03-12T18:26:49.354Z,1.13
2019-03-12T18:29:15.501Z,1.30
2019-03-12T18:31:41.634Z,1.47
2019-03-12T18:34:08.085Z,0.90
2019-03-12T18:36:34.249Z,1.13
2019-03-12T18:39:03.305Z,1.53
2019-03-12T18:41:28.504Z,1.47
2019-03-12T18:43:54.691Z,1.10
2019-03-12T18:46:21.093Z,1.20
2019-03-12T18:48:47.311Z,1.40
2019-03-12T18:51:13.450Z,1.47
2019-03-12T18:53:39.607Z,1.40
2019-03-12T18:56:05.776Z,1.60
2019-03-12T18:58:31.945Z,1.43
2019-03-12T19:01:00.567Z,1.40
2019-03-12T19:03:26.744Z,1.00
2019-03-12T19:05:53.216Z,1.10
2019-03-12T19:08:19.386Z,1.43
2019-03-12T19:10:45.525Z,1.30
2019-03-12T19:13:11.838Z,0.90
2019-03-12T19:15:38.045Z,1.13
2019-03-12T19:18:04.420Z,1.00
2019-03-12T19:20:33.101Z,1.10
2019-03-12T19:22:58.626Z,1.20
2019-03-12T19:25:37.968Z,1.03
2019-03-12T19:28:03.493Z,0.90
2019-03-12T19:30:30.000Z,1.40
2019-03-12T19:32:58.066Z,1.50
2019-03-12T19:35:29.124Z,1.17
2019-03-12T19:37:57.161Z,1.20
2019-03-12T19:40:31.447Z,1.00
2019-03-12T19:42:58.123Z,0.90
2019-03-12T19:45:24.519Z,1.10
2019-03-12T19:47:50.862Z,1.20
2019-03-12T19:50:19.540Z,1.30
2019-03-12T19:52:45.954Z,1.40
2019-03-12T19:55:44.556Z,1.50
2019-03-12T19:58:10.843Z,1.27
2019-03-12T20:00:37.485Z,1.03
2019-03-12T20:03:10.841Z,1.20
2019-03-12T20:05:32.007Z,1.20
2019-03-12T20:07:58.230Z,1.20
2019-03-12T20:10:45.562Z,1.10
2019-03-12T20:14:08.298Z,1.13
2019-03-12T20:17:16.386Z,1.00
2019-03-12T20:20:07.542Z,1.10
2019-03-12T20:23:08.199Z,1.40
2019-03-12T20:26:23.876Z,0.90
2019-03-12T20:29:29.493Z,1.10
2019-03-12T20:32:16.396Z,1.20
2019-03-12T20:35:10.844Z,1.13
2019-03-12T20:38:33.499Z,1.47
2019-03-12T20:41:28.254Z,1.17
2019-03-12T20:44:40.246Z,1.10
2019-03-12T20:47:30.465Z,1.00
2019-03-12T20:50:20.565Z,1.20
2019-03-12T20:53:15.155Z,1.33
2019-03-12T20:56:24.811Z,1.00
2019-03-12T20:59:26.375Z,1.33
2019-03-12T21:02:41.427Z,0.93
2019-03-12T21:05:59.103Z,1.10
2019-03-12T21:09:22.117Z,1.57
2019-03-12T21:12:11.959Z,1.10
2019-03-12T21:15:05.635Z,1.30
2019-03-12T21:17:52.854Z,1.50
2019-03-12T21:21:02.329Z,1.30
2019-03-12T21:24:01.480Z,1.47
2019-03-12T21:27:02.799Z,1.20
2019-03-12T21:29:45.716Z,1.40
2019-03-12T21:32:14.183Z,1.33
2019-03-12T21:34:40.619Z,1.50
2019-03-12T21:37:07.012Z,1.23
2019-03-12T21:39:33.706Z,1.50
2019-03-12T21:42:00.578Z,1.30
2019-03-12T21:44:27.454Z,1.20
2019-03-12T21:46:54.126Z,1.53
2019-03-12T21:49:20.330Z,1.20
2019-03-12T21:51:46.600Z,1.20
2019-03-12T21:54:13.038Z,1.27
2019-03-12T21:56:39.220Z,1.37
2019-03-12T21:59:05.830Z,1.07
2019-03-12T22:01:32.168Z,1.07
2019-03-12T22:03:58.299Z,1.33
2019-03-12T22:06:24.469Z,1.10
2019-03-12T22:08:50.642Z,1.20
2019-03-12T22:11:17.187Z,1.10
2019-03-12T22:13:43.348Z,1.27
2019-03-12T22:16:09.497Z,1.50
2019-03-12T22:18:35.629Z,1.47
2019-03-12T22:21:01.812Z,1.30
2019-03-12T22:23:32.994Z,1.27
2019-03-12T22:25:59.389Z,1.50
2019-03-12T22:28:25.547Z,1.43
2019-03-12T22:30:52.262Z,1.50
2019-03-12T22:33:18.499Z,1.30
2019-03-12T22:35:44.641Z,1.30
2019-03-12T22:38:11.090Z,1.20
2019-03-12T22:40:37.507Z,1.37
2019-03-12T22:43:03.662Z,1.50
2019-03-12T22:45:29.818Z,1.40
2019-03-12T22:47:55.976Z,1.67
2019-03-12T22:50:22.149Z,1.37
2019-03-12T22:52:48.294Z,1.53
2019-03-12T22:55:14.451Z,1.30
2019-03-12T22:57:40.969Z,1.40
2019-03-12T23:00:13.676Z,1.10
2019-03-12T23:02:39.893Z,1.00
2019-03-12T23:05:08.873Z,0.90
2019-03-12T23:07:35.043Z,1.00
2019-03-12T23:10:04.190Z,1.10
2019-03-12T23:12:30.647Z,1.10
2019-03-12T23:14:57.231Z,1.10
2019-03-12T23:17:23.379Z,1.00
2019-03-12T23:19:49.630Z,0.90
2019-03-12T23:22:16.002Z,1.10
2019-03-12T23:24:42.149Z,1.10
2019-03-12T23:27:08.281Z,1.00
2019-03-12T23:29:34.439Z,1.20
2019-03-12T23:32:00.673Z,1.20
2019-03-12T23:34:26.832Z,0.80
2019-03-12T23:36:53.312Z,1.00
2019-03-12T23:39:19.525Z,0.93
2019-03-12T23:41:45.633Z,1.20
2019-03-12T23:44:11.798Z,0.87
2019-03-12T23:46:37.971Z,0.90
2019-03-12T23:49:04.128Z,1.00
2019-03-12T23:51:30.281Z,0.90
2019-03-12T23:53:56.431Z,1.10
2019-03-12T23:56:22.575Z,0.87
2019-03-12T23:58:48.771Z,1.00
